sensor_id;sensor_type;location;lat;lon;timestamp;pressure;altitude;pressure_sealevel;temperature;humidity
28008;BME280;15333;50.010;20.020;2024-01-11T00:01:28;100019.41;;;-8.61;98.80
28008;BME280;15333;50.010;20.020;2024-01-11T00:04:29;100016.84;;;-8.60;98.50
28008;BME280;15333;50.010;20.020;2024-01-11T00:07:30;100016.69;;;-8.66;98.46
28008;BME280;15333;50.010;20.020;2024-01-11T00:10:31;100007.09;;;-8.70;97.32
28008;BME280;15333;50.010;20.020;2024-01-11T00:13:31;100009.56;;;-8.76;98.53
28008;BME280;15333;50.010;20.020;2024-01-11T00:16:32;100012.06;;;-8.82;98.69
28008;BME280;15333;50.010;20.020;2024-01-11T00:19:33;100004.19;;;-8.85;97.44
28008;BME280;15333;50.010;20.020;2024-01-11T00:22:34;99997.25;;;-8.86;98.73
28008;BME280;15333;50.010;20.020;2024-01-11T00:25:35;99994.56;;;-8.91;98.08
28008;BME280;15333;50.010;20.020;2024-01-11T00:28:36;99990.06;;;-8.99;97.75
28008;BME280;15333;50.010;20.020;2024-01-11T00:31:37;99988.31;;;-9.00;97.84
28008;BME280;15333;50.010;20.020;2024-01-11T00:34:39;99985.84;;;-8.94;98.67
28008;BME280;15333;50.010;20.020;2024-01-11T00:37:40;99978.00;;;-8.97;98.24
28008;BME280;15333;50.010;20.020;2024-01-11T00:40:41;99969.44;;;-8.93;97.96
28008;BME280;15333;50.010;20.020;2024-01-11T00:43:42;99973.06;;;-8.85;97.99
28008;BME280;15333;50.010;20.020;2024-01-11T00:46:43;99967.97;;;-8.82;98.44
28008;BME280;15333;50.010;20.020;2024-01-11T00:49:43;99966.25;;;-8.80;98.99
28008;BME280;15333;50.010;20.020;2024-01-11T00:52:44;99962.06;;;-8.75;99.48
28008;BME280;15333;50.010;20.020;2024-01-11T00:55:45;99964.69;;;-8.72;98.98
28008;BME280;15333;50.010;20.020;2024-01-11T00:58:46;99956.94;;;-8.71;100.00
28008;BME280;15333;50.010;20.020;2024-01-11T01:01:48;99945.75;;;-8.68;99.78
28008;BME280;15333;50.010;20.020;2024-01-11T01:04:49;99958.13;;;-8.55;99.69
28008;BME280;15333;50.010;20.020;2024-01-11T01:07:50;99954.72;;;-8.51;98.87
28008;BME280;15333;50.010;20.020;2024-01-11T01:10:50;99956.69;;;-8.38;99.64
28008;BME280;15333;50.010;20.020;2024-01-11T01:13:51;99955.97;;;-8.29;100.00
28008;BME280;15333;50.010;20.020;2024-01-11T01:16:52;99967.25;;;-8.27;99.69
28008;BME280;15333;50.010;20.020;2024-01-11T01:19:53;99958.41;;;-8.40;100.00
28008;BME280;15333;50.010;20.020;2024-01-11T01:22:54;99953.13;;;-8.46;100.00
28008;BME280;15333;50.010;20.020;2024-01-11T01:25:55;99942.66;;;-8.49;100.00
28008;BME280;15333;50.010;20.020;2024-01-11T01:28:55;99944.41;;;-8.48;100.00
28008;BME280;15333;50.010;20.020;2024-01-11T01:31:56;99938.34;;;-8.48;100.00
28008;BME280;15333;50.010;20.020;2024-01-11T01:34:57;99940.06;;;-8.49;100.00
28008;BME280;15333;50.010;20.020;2024-01-11T01:37:58;99944.44;;;-8.45;100.00
28008;BME280;15333;50.010;20.020;2024-01-11T01:40:59;99941.94;;;-8.42;100.00
28008;BME280;15333;50.010;20.020;2024-01-11T01:44:00;99933.28;;;-8.41;100.00
28008;BME280;15333;50.010;20.020;2024-01-11T01:47:00;99931.50;;;-8.43;100.00
28008;BME280;15333;50.010;20.020;2024-01-11T01:50:04;99937.56;;;-8.43;100.00
28008;BME280;15333;50.010;20.020;2024-01-11T01:53:05;99933.38;;;-8.36;100.00
28008;BME280;15333;50.010;20.020;2024-01-11T01:56:07;99924.75;;;-8.35;100.00
28008;BME280;15333;50.010;20.020;2024-01-11T01:59:09;99924.00;;;-8.26;100.00
28008;BME280;15333;50.010;20.020;2024-01-11T02:02:11;99919.81;;;-8.17;100.00
28008;BME280;15333;50.010;20.020;2024-01-11T02:05:13;99920.97;;;-8.01;100.00
28008;BME280;15333;50.010;20.020;2024-01-11T02:08:16;99929.00;;;-7.86;100.00
28008;BME280;15333;50.010;20.020;2024-01-11T02:11:20;99919.66;;;-7.73;100.00
28008;BME280;15333;50.010;20.020;2024-01-11T02:14:22;99912.81;;;-7.70;100.00
28008;BME280;15333;50.010;20.020;2024-01-11T02:17:22;99913.72;;;-7.66;100.00
28008;BME280;15333;50.010;20.020;2024-01-11T02:20:23;99909.59;;;-7.54;100.00
28008;BME280;15333;50.010;20.020;2024-01-11T02:23:24;99908.88;;;-7.42;100.00
28008;BME280;15333;50.010;20.020;2024-01-11T02:26:27;99902.03;;;-7.35;100.00
28008;BME280;15333;50.010;20.020;2024-01-11T02:29:28;99901.25;;;-7.30;100.00
28008;BME280;15333;50.010;20.020;2024-01-11T02:32:30;99910.78;;;-7.32;100.00
28008;BME280;15333;50.010;20.020;2024-01-11T02:35:31;99902.00;;;-7.37;100.00
28008;BME280;15333;50.010;20.020;2024-01-11T02:38:33;99877.72;;;-7.40;100.00
28008;BME280;15333;50.010;20.020;2024-01-11T02:41:36;99880.38;;;-7.34;100.00
28008;BME280;15333;50.010;20.020;2024-01-11T02:44:38;99876.94;;;-7.33;99.88
28008;BME280;15333;50.010;20.020;2024-01-11T02:47:39;99892.63;;;-7.24;100.00
28008;BME280;15333;50.010;20.020;2024-01-11T02:50:40;99888.41;;;-7.16;100.00
28008;BME280;15333;50.010;20.020;2024-01-11T02:53:40;99893.63;;;-7.16;100.00
28008;BME280;15333;50.010;20.020;2024-01-11T02:56:41;99889.16;;;-7.26;100.00
28008;BME280;15333;50.010;20.020;2024-01-11T02:59:43;99887.38;;;-7.30;99.56
28008;BME280;15333;50.010;20.020;2024-01-11T03:02:44;99893.34;;;-7.39;99.25
28008;BME280;15333;50.010;20.020;2024-01-11T03:05:44;99899.31;;;-7.44;100.00
28008;BME280;15333;50.010;20.020;2024-01-11T03:08:45;99895.78;;;-7.49;100.00
28008;BME280;15333;50.010;20.020;2024-01-11T03:11:46;99890.72;;;-7.40;99.92
28008;BME280;15333;50.010;20.020;2024-01-11T03:14:47;99892.41;;;-7.42;100.00
28008;BME280;15333;50.010;20.020;2024-01-11T03:17:48;99885.63;;;-7.31;99.61
28008;BME280;15333;50.010;20.020;2024-01-11T03:20:49;99874.44;;;-7.26;100.00
28008;BME280;15333;50.010;20.020;2024-01-11T03:23:50;99863.25;;;-7.20;100.00
28008;BME280;15333;50.010;20.020;2024-01-11T03:26:51;99861.59;;;-7.12;98.71
28008;BME280;15333;50.010;20.020;2024-01-11T03:29:51;99854.78;;;-7.04;99.04
28008;BME280;15333;50.010;20.020;2024-01-11T03:32:52;99858.28;;;-6.99;99.96
28008;BME280;15333;50.010;20.020;2024-01-11T03:35:53;99867.94;;;-6.87;98.33
28008;BME280;15333;50.010;20.020;2024-01-11T03:38:54;99857.53;;;-6.87;97.70
28008;BME280;15333;50.010;20.020;2024-01-11T03:41:55;99841.09;;;-6.85;97.72
28008;BME280;15333;50.010;20.020;2024-01-11T03:44:56;99832.56;;;-6.72;98.92
28008;BME280;15333;50.010;20.020;2024-01-11T03:47:57;99829.94;;;-6.73;98.40
28008;BME280;15333;50.010;20.020;2024-01-11T03:50:57;99843.00;;;-6.68;97.10
28008;BME280;15333;50.010;20.020;2024-01-11T03:53:58;99849.81;;;-6.80;97.74
28008;BME280;15333;50.010;20.020;2024-01-11T03:56:59;99843.41;;;-7.09;98.24
28008;BME280;15333;50.010;20.020;2024-01-11T04:00:00;99843.13;;;-7.35;98.00
28008;BME280;15333;50.010;20.020;2024-01-11T04:03:01;99848.94;;;-7.53;98.49
28008;BME280;15333;50.010;20.020;2024-01-11T04:06:03;99856.56;;;-7.65;98.85
28008;BME280;15333;50.010;20.020;2024-01-11T04:09:04;99862.44;;;-7.78;98.57
28008;BME280;15333;50.010;20.020;2024-01-11T04:12:05;99857.09;;;-7.90;98.69
28008;BME280;15333;50.010;20.020;2024-01-11T04:15:07;99867.22;;;-8.05;99.04
28008;BME280;15333;50.010;20.020;2024-01-11T04:18:08;99863.56;;;-8.16;100.00
28008;BME280;15333;50.010;20.020;2024-01-11T04:21:25;99861.69;;;-8.26;100.00
28008;BME280;15333;50.010;20.020;2024-01-11T04:24:29;99856.44;;;-8.30;100.00
28008;BME280;15333;50.010;20.020;2024-01-11T04:27:30;99860.59;;;-8.42;100.00
28008;BME280;15333;50.010;20.020;2024-01-11T04:30:31;99859.63;;;-8.49;100.00
28008;BME280;15333;50.010;20.020;2024-01-11T04:33:32;99863.06;;;-8.50;100.00
28008;BME280;15333;50.010;20.020;2024-01-11T04:36:33;99851.69;;;-8.56;100.00
28008;BME280;15333;50.010;20.020;2024-01-11T04:39:34;99846.53;;;-8.55;100.00
28008;BME280;15333;50.010;20.020;2024-01-11T04:42:34;99830.06;;;-8.57;100.00
28008;BME280;15333;50.010;20.020;2024-01-11T04:45:35;99814.50;;;-8.57;100.00
28008;BME280;15333;50.010;20.020;2024-01-11T04:48:36;99820.66;;;-8.50;100.00
28008;BME280;15333;50.010;20.020;2024-01-11T04:51:37;99816.31;;;-8.53;100.00
28008;BME280;15333;50.010;20.020;2024-01-11T04:54:38;99815.41;;;-8.55;100.00
28008;BME280;15333;50.010;20.020;2024-01-11T04:57:39;99820.69;;;-8.49;100.00
28008;BME280;15333;50.010;20.020;2024-01-11T05:00:39;99813.81;;;-8.45;100.00
28008;BME280;15333;50.010;20.020;2024-01-11T05:03:41;99801.72;;;-8.46;100.00
28008;BME280;15333;50.010;20.020;2024-01-11T05:06:42;99802.69;;;-8.40;100.00
28008;BME280;15333;50.010;20.020;2024-01-11T05:09:43;99791.41;;;-8.42;100.00
28008;BME280;15333;50.010;20.020;2024-01-11T05:12:44;99791.44;;;-8.40;100.00
28008;BME280;15333;50.010;20.020;2024-01-11T05:15:45;99792.31;;;-8.40;100.00
28008;BME280;15333;50.010;20.020;2024-01-11T05:18:46;99775.00;;;-8.38;100.00
28008;BME280;15333;50.010;20.020;2024-01-11T05:21:47;99761.38;;;-8.24;100.00
28008;BME280;15333;50.010;20.020;2024-01-11T05:24:48;99752.00;;;-8.13;100.00
28008;BME280;15333;50.010;20.020;2024-01-11T05:27:49;99739.25;;;-7.95;100.00
28008;BME280;15333;50.010;20.020;2024-01-11T05:30:49;99727.41;;;-7.75;100.00
28008;BME280;15333;50.010;20.020;2024-01-11T05:33:50;99731.91;;;-7.60;100.00
28008;BME280;15333;50.010;20.020;2024-01-11T05:36:51;99751.84;;;-7.61;100.00
28008;BME280;15333;50.010;20.020;2024-01-11T05:39:52;99740.53;;;-7.63;99.86
28008;BME280;15333;50.010;20.020;2024-01-11T05:42:54;99726.69;;;-7.63;99.61
28008;BME280;15333;50.010;20.020;2024-01-11T05:45:55;99736.13;;;-7.67;100.00
28008;BME280;15333;50.010;20.020;2024-01-11T05:48:56;99727.38;;;-7.78;100.00
28008;BME280;15333;50.010;20.020;2024-01-11T05:51:57;99739.25;;;-7.95;99.88
28008;BME280;15333;50.010;20.020;2024-01-11T05:54:58;99765.16;;;-8.00;100.00
28008;BME280;15333;50.010;20.020;2024-01-11T05:57:59;99783.28;;;-8.04;100.00
28008;BME280;15333;50.010;20.020;2024-01-11T06:00:59;99766.66;;;-8.15;100.00
28008;BME280;15333;50.010;20.020;2024-01-11T06:04:00;99749.22;;;-8.25;100.00
28008;BME280;15333;50.010;20.020;2024-01-11T06:07:01;99737.91;;;-8.31;100.00
28008;BME280;15333;50.010;20.020;2024-01-11T06:10:02;99754.16;;;-8.44;100.00
28008;BME280;15333;50.010;20.020;2024-01-11T06:13:05;99767.13;;;-8.44;100.00
28008;BME280;15333;50.010;20.020;2024-01-11T06:16:06;99768.09;;;-8.39;100.00
28008;BME280;15333;50.010;20.020;2024-01-11T06:19:07;99783.72;;;-8.36;100.00
28008;BME280;15333;50.010;20.020;2024-01-11T06:22:09;99796.78;;;-8.28;100.00
28008;BME280;15333;50.010;20.020;2024-01-11T06:25:10;99792.44;;;-8.31;100.00
28008;BME280;15333;50.010;20.020;2024-01-11T06:28:11;99785.47;;;-8.35;100.00
28008;BME280;15333;50.010;20.020;2024-01-11T06:31:12;99780.19;;;-8.38;100.00
28008;BME280;15333;50.010;20.020;2024-01-11T06:34:13;99761.88;;;-8.48;100.00
28008;BME280;15333;50.010;20.020;2024-01-11T06:37:14;99767.09;;;-8.48;100.00
28008;BME280;15333;50.010;20.020;2024-01-11T06:40:15;99751.41;;;-8.54;100.00
28008;BME280;15333;50.010;20.020;2024-01-11T06:43:15;99744.41;;;-8.60;100.00
28008;BME280;15333;50.010;20.020;2024-01-11T06:46:20;99734.03;;;-8.58;100.00
28008;BME280;15333;50.010;20.020;2024-01-11T06:49:22;99735.94;;;-8.48;100.00
28008;BME280;15333;50.010;20.020;2024-01-11T06:52:23;99721.28;;;-8.45;100.00
28008;BME280;15333;50.010;20.020;2024-01-11T06:55:24;99704.25;;;-8.24;100.00
28008;BME280;15333;50.010;20.020;2024-01-11T06:58:26;99672.59;;;-7.96;100.00
28008;BME280;15333;50.010;20.020;2024-01-11T07:01:26;99658.25;;;-7.64;100.00
28008;BME280;15333;50.010;20.020;2024-01-11T07:04:27;99675.91;;;-7.29;100.00
28008;BME280;15333;50.010;20.020;2024-01-11T07:07:28;99657.09;;;-7.01;100.00
28008;BME280;15333;50.010;20.020;2024-01-11T07:10:29;99661.75;;;-6.62;99.99
28008;BME280;15333;50.010;20.020;2024-01-11T07:13:31;99656.53;;;-6.62;99.42
28008;BME280;15333;50.010;20.020;2024-01-11T07:16:32;99650.44;;;-6.65;98.36
28008;BME280;15333;50.010;20.020;2024-01-11T07:19:32;99631.34;;;-6.64;97.74
28008;BME280;15333;50.010;20.020;2024-01-11T07:22:33;99622.75;;;-6.54;97.40
28008;BME280;15333;50.010;20.020;2024-01-11T07:25:34;99634.94;;;-6.47;97.65
28008;BME280;15333;50.010;20.020;2024-01-11T07:28:35;99642.75;;;-6.43;97.58
28008;BME280;15333;50.010;20.020;2024-01-11T07:31:37;99654.03;;;-6.44;97.18
28008;BME280;15333;50.010;20.020;2024-01-11T07:34:38;99648.78;;;-6.51;97.80
28008;BME280;15333;50.010;20.020;2024-01-11T07:37:39;99648.78;;;-6.51;96.68
28008;BME280;15333;50.010;20.020;2024-01-11T07:40:40;99660.06;;;-6.52;96.98
28008;BME280;15333;50.010;20.020;2024-01-11T07:43:41;99643.56;;;-6.51;96.62
28008;BME280;15333;50.010;20.020;2024-01-11T07:46:43;99662.63;;;-6.58;98.01
28008;BME280;15333;50.010;20.020;2024-01-11T07:49:43;99650.63;;;-6.35;97.20
28008;BME280;15333;50.010;20.020;2024-01-11T07:52:44;99638.63;;;-6.03;96.10
28008;BME280;15333;50.010;20.020;2024-01-11T07:55:46;99638.66;;;-5.84;96.54
28008;BME280;15333;50.010;20.020;2024-01-11T07:58:48;99641.34;;;-5.63;95.46
28008;BME280;15333;50.010;20.020;2024-01-11T08:01:49;99642.22;;;-5.58;95.24
28008;BME280;15333;50.010;20.020;2024-01-11T08:04:50;99623.13;;;-5.39;95.55
28008;BME280;15333;50.010;20.020;2024-01-11T08:07:51;99628.34;;;-5.42;95.31
28008;BME280;15333;50.010;20.020;2024-01-11T08:10:52;99609.19;;;-5.53;94.39
28008;BME280;15333;50.010;20.020;2024-01-11T08:13:53;99625.72;;;-5.46;94.51
28008;BME280;15333;50.010;20.020;2024-01-11T08:16:55;99631.78;;;-5.52;95.23
28008;BME280;15333;50.010;20.020;2024-01-11T08:19:56;99635.31;;;-5.29;94.32
28008;BME280;15333;50.010;20.020;2024-01-11T08:22:57;99640.53;;;-5.10;93.95
28008;BME280;15333;50.010;20.020;2024-01-11T08:25:57;99640.53;;;-5.10;94.21
28008;BME280;15333;50.010;20.020;2024-01-11T08:28:59;99633.59;;;-5.05;94.04
28008;BME280;15333;50.010;20.020;2024-01-11T08:32:00;99616.22;;;-4.97;93.69
28008;BME280;15333;50.010;20.020;2024-01-11T08:35:09;99612.72;;;-4.93;93.36
28008;BME280;15333;50.010;20.020;2024-01-11T08:38:10;99626.63;;;-4.85;93.46
28008;BME280;15333;50.010;20.020;2024-01-11T08:41:11;99626.59;;;-4.64;93.92
28008;BME280;15333;50.010;20.020;2024-01-11T08:44:12;99631.81;;;-4.49;93.93
28008;BME280;15333;50.010;20.020;2024-01-11T08:47:13;99626.53;;;-4.29;93.42
28008;BME280;15333;50.010;20.020;2024-01-11T08:50:14;99625.63;;;-4.22;93.72
28008;BME280;15333;50.010;20.020;2024-01-11T08:53:15;99615.13;;;-4.10;98.13
28008;BME280;15333;50.010;20.020;2024-01-11T08:56:16;99615.97;;;-4.03;100.00
28008;BME280;15333;50.010;20.020;2024-01-11T08:59:18;99628.19;;;-4.02;100.00
28008;BME280;15333;50.010;20.020;2024-01-11T09:02:18;99622.88;;;-3.87;100.00
28008;BME280;15333;50.010;20.020;2024-01-11T09:05:19;99616.84;;;-3.98;100.00
28008;BME280;15333;50.010;20.020;2024-01-11T09:08:21;99604.63;;;-3.91;100.00
28008;BME280;15333;50.010;20.020;2024-01-11T09:11:22;99613.31;;;-3.88;100.00
28008;BME280;15333;50.010;20.020;2024-01-11T09:14:23;99621.09;;;-3.82;100.00
28008;BME280;15333;50.010;20.020;2024-01-11T09:17:24;99612.34;;;-3.76;99.31
28008;BME280;15333;50.010;20.020;2024-01-11T09:20:25;99624.50;;;-3.62;97.89
28008;BME280;15333;50.010;20.020;2024-01-11T09:23:25;99626.16;;;-3.45;98.79
28008;BME280;15333;50.010;20.020;2024-01-11T09:26:26;99610.41;;;-3.36;96.41
28008;BME280;15333;50.010;20.020;2024-01-11T09:29:27;99613.09;;;-3.48;96.17
28008;BME280;15333;50.010;20.020;2024-01-11T09:32:28;99603.41;;;-3.34;95.55
28008;BME280;15333;50.010;20.020;2024-01-11T09:35:29;99593.72;;;-3.20;95.40
28008;BME280;15333;50.010;20.020;2024-01-11T09:38:30;99598.03;;;-3.13;94.52
28008;BME280;15333;50.010;20.020;2024-01-11T09:41:31;99576.97;;;-3.04;94.34
28008;BME280;15333;50.010;20.020;2024-01-11T09:44:33;99559.44;;;-2.93;93.10
28008;BME280;15333;50.010;20.020;2024-01-11T09:47:36;99551.59;;;-2.93;91.72
28008;BME280;15333;50.010;20.020;2024-01-11T09:50:38;99565.38;;;-2.77;90.45
28008;BME280;15333;50.010;20.020;2024-01-11T09:53:40;99568.00;;;-2.76;89.86
28008;BME280;15333;50.010;20.020;2024-01-11T09:56:42;99576.56;;;-2.61;89.44
28008;BME280;15333;50.010;20.020;2024-01-11T09:59:44;99555.63;;;-2.61;88.49
28008;BME280;15333;50.010;20.020;2024-01-11T10:02:46;99562.44;;;-2.45;87.41
28008;BME280;15333;50.010;20.020;2024-01-11T10:05:49;99550.03;;;-2.31;86.27
28008;BME280;15333;50.010;20.020;2024-01-11T10:08:51;99554.34;;;-2.27;84.17
28008;BME280;15333;50.010;20.020;2024-01-11T10:11:52;99561.16;;;-2.11;83.91
28008;BME280;15333;50.010;20.020;2024-01-11T10:14:54;99560.16;;;-2.01;83.52
28008;BME280;15333;50.010;20.020;2024-01-11T10:17:55;99560.00;;;-1.88;82.35
28008;BME280;15333;50.010;20.020;2024-01-11T10:20:57;99541.69;;;-1.93;82.31
28008;BME280;15333;50.010;20.020;2024-01-11T10:23:58;99535.50;;;-1.87;81.94
28008;BME280;15333;50.010;20.020;2024-01-11T10:27:00;99530.06;;;-1.74;80.77
28008;BME280;15333;50.010;20.020;2024-01-11T10:30:05;99526.38;;;-1.62;79.70
28008;BME280;15333;50.010;20.020;2024-01-11T10:33:08;99530.84;;;-1.67;80.35
28008;BME280;15333;50.010;20.020;2024-01-11T10:36:11;99525.56;;;-1.64;78.86
28008;BME280;15333;50.010;20.020;2024-01-11T10:39:13;99517.53;;;-1.55;79.77
28008;BME280;15333;50.010;20.020;2024-01-11T10:42:20;99511.44;;;-1.57;79.56
28008;BME280;15333;50.010;20.020;2024-01-11T10:45:25;99517.56;;;-1.56;79.18
28008;BME280;15333;50.010;20.020;2024-01-11T10:48:27;99520.13;;;-1.53;79.98
28008;BME280;15333;50.010;20.020;2024-01-11T10:51:32;99503.38;;;-1.45;80.09
28008;BME280;15333;50.010;20.020;2024-01-11T10:54:34;99508.56;;;-1.42;78.17
28008;BME280;15333;50.010;20.020;2024-01-11T10:57:35;99494.44;;;-1.35;77.10
28008;BME280;15333;50.010;20.020;2024-01-11T11:00:36;99486.28;;;-1.16;77.04
28008;BME280;15333;50.010;20.020;2024-01-11T11:03:37;99479.25;;;-1.14;74.36
28008;BME280;15333;50.010;20.020;2024-01-11T11:06:40;99469.44;;;-1.06;73.58
28008;BME280;15333;50.010;20.020;2024-01-11T11:09:41;99473.00;;;-1.07;72.40
28008;BME280;15333;50.010;20.020;2024-01-11T11:12:45;99473.84;;;-1.07;70.39
28008;BME280;15333;50.010;20.020;2024-01-11T11:15:47;99473.75;;;-1.01;70.33
28008;BME280;15333;50.010;20.020;2024-01-11T11:18:53;99466.75;;;-1.02;72.20
28008;BME280;15333;50.010;20.020;2024-01-11T11:21:54;99460.50;;;-0.96;71.10
28008;BME280;15333;50.010;20.020;2024-01-11T11:25:25;99455.25;;;-0.96;70.14
28008;BME280;15333;50.010;20.020;2024-01-11T11:28:26;99445.56;;;-0.93;71.47
28008;BME280;15333;50.010;20.020;2024-01-11T11:31:37;99444.69;;;-0.93;70.77
28008;BME280;15333;50.010;20.020;2024-01-11T11:34:45;99426.41;;;-0.99;71.45
28008;BME280;15333;50.010;20.020;2024-01-11T11:37:47;99427.38;;;-1.03;73.00
28008;BME280;15333;50.010;20.020;2024-01-11T11:40:51;99406.31;;;-1.00;72.83
28008;BME280;15333;50.010;20.020;2024-01-11T11:43:53;99408.88;;;-0.97;73.21
28008;BME280;15333;50.010;20.020;2024-01-11T11:46:53;99408.78;;;-0.93;72.51
28008;BME280;15333;50.010;20.020;2024-01-11T11:50:10;99404.34;;;-0.89;71.48
28008;BME280;15333;50.010;20.020;2024-01-11T11:53:12;99405.94;;;-0.82;71.97
28008;BME280;15333;50.010;20.020;2024-01-11T11:56:13;99406.66;;;-0.74;70.87
28008;BME280;15333;50.010;20.020;2024-01-11T11:59:17;99408.28;;;-0.68;69.27
28008;BME280;15333;50.010;20.020;2024-01-11T12:02:20;99396.78;;;-0.63;69.51
28008;BME280;15333;50.010;20.020;2024-01-11T12:05:21;99387.13;;;-0.62;69.86
28008;BME280;15333;50.010;20.020;2024-01-11T12:08:23;99389.69;;;-0.58;68.55
28008;BME280;15333;50.010;20.020;2024-01-11T12:11:24;99380.75;;;-0.51;68.44
28008;BME280;15333;50.010;20.020;2024-01-11T12:14:25;99375.22;;;-0.38;68.99
28008;BME280;15333;50.010;20.020;2024-01-11T12:17:27;99391.13;;;-0.45;69.24
28008;BME280;15333;50.010;20.020;2024-01-11T12:20:28;99383.28;;;-0.46;70.27
28008;BME280;15333;50.010;20.020;2024-01-11T12:23:29;99371.94;;;-0.50;69.95
28008;BME280;15333;50.010;20.020;2024-01-11T12:26:34;99357.03;;;-0.48;68.43
28008;BME280;15333;50.010;20.020;2024-01-11T12:29:35;99365.97;;;-0.56;69.23
28008;BME280;15333;50.010;20.020;2024-01-11T12:32:36;99374.81;;;-0.59;69.06
28008;BME280;15333;50.010;20.020;2024-01-11T12:35:37;99372.91;;;-0.52;69.50
28008;BME280;15333;50.010;20.020;2024-01-11T12:38:46;99337.16;;;-0.61;70.75
28008;BME280;15333;50.010;20.020;2024-01-11T12:41:47;99340.69;;;-0.62;70.24
28008;BME280;15333;50.010;20.020;2024-01-11T12:44:48;99336.47;;;-0.69;71.23
28008;BME280;15333;50.010;20.020;2024-01-11T12:47:50;99337.22;;;-0.64;70.21
28008;BME280;15333;50.010;20.020;2024-01-11T12:50:51;99323.31;;;-0.69;69.83
28008;BME280;15333;50.010;20.020;2024-01-11T12:53:56;99319.06;;;-0.74;71.07
28008;BME280;15333;50.010;20.020;2024-01-11T12:56:59;99310.94;;;-0.64;69.91
28008;BME280;15333;50.010;20.020;2024-01-11T13:00:10;99304.03;;;-0.68;69.54
28008;BME280;15333;50.010;20.020;2024-01-11T13:03:11;99312.53;;;-0.57;69.40
28008;BME280;15333;50.010;20.020;2024-01-11T13:06:14;99314.41;;;-0.62;68.68
28008;BME280;15333;50.010;20.020;2024-01-11T13:09:15;99312.63;;;-0.61;70.08
28008;BME280;15333;50.010;20.020;2024-01-11T13:12:16;99321.34;;;-0.58;69.63
28008;BME280;15333;50.010;20.020;2024-01-11T13:15:18;99312.53;;;-0.57;68.69
28008;BME280;15333;50.010;20.020;2024-01-11T13:18:19;99310.59;;;-0.49;68.65
28008;BME280;15333;50.010;20.020;2024-01-11T13:21:20;99305.56;;;-0.58;69.23
28008;BME280;15333;50.010;20.020;2024-01-11T13:24:20;99319.78;;;-0.68;70.07
28008;BME280;15333;50.010;20.020;2024-01-11T13:27:21;99302.09;;;-0.60;69.01
28008;BME280;15333;50.010;20.020;2024-01-11T13:30:23;99303.75;;;-0.56;71.00
28008;BME280;15333;50.010;20.020;2024-01-11T13:33:24;99300.31;;;-0.58;70.88
28008;BME280;15333;50.010;20.020;2024-01-11T13:36:25;99301.25;;;-0.62;70.66
28008;BME280;15333;50.010;20.020;2024-01-11T13:39:25;99309.16;;;-0.62;71.14
28008;BME280;15333;50.010;20.020;2024-01-11T13:42:26;99305.06;;;-0.75;71.37
28008;BME280;15333;50.010;20.020;2024-01-11T13:45:27;99301.56;;;-0.75;73.16
28008;BME280;15333;50.010;20.020;2024-01-11T13:48:31;99304.38;;;-0.83;73.47
28008;BME280;15333;50.010;20.020;2024-01-11T13:51:33;99321.34;;;-0.99;73.73
28008;BME280;15333;50.010;20.020;2024-01-11T13:54:33;99327.59;;;-1.05;75.36
28008;BME280;15333;50.010;20.020;2024-01-11T13:57:34;99329.56;;;-1.14;76.30
28008;BME280;15333;50.010;20.020;2024-01-11T14:00:35;99328.69;;;-1.15;78.26
28008;BME280;15333;50.010;20.020;2024-01-11T14:03:36;99328.59;;;-1.12;77.48
28008;BME280;15333;50.010;20.020;2024-01-11T14:06:37;99313.72;;;-1.11;78.73
28008;BME280;15333;50.010;20.020;2024-01-11T14:09:38;99324.41;;;-1.21;79.71
28008;BME280;15333;50.010;20.020;2024-01-11T14:12:39;99320.97;;;-1.24;78.63
28008;BME280;15333;50.010;20.020;2024-01-11T14:15:41;99317.63;;;-1.31;79.89
28008;BME280;15333;50.010;20.020;2024-01-11T14:18:42;99318.50;;;-1.32;80.83
28008;BME280;15333;50.010;20.020;2024-01-11T14:21:43;99329.03;;;-1.33;81.77
28008;BME280;15333;50.010;20.020;2024-01-11T14:24:44;99331.69;;;-1.35;81.74
28008;BME280;15333;50.010;20.020;2024-01-11T14:27:47;99323.03;;;-1.40;84.06
28008;BME280;15333;50.010;20.020;2024-01-11T14:30:48;99326.63;;;-1.44;82.54
28008;BME280;15333;50.010;20.020;2024-01-11T14:33:49;99323.19;;;-1.49;83.75
28008;BME280;15333;50.010;20.020;2024-01-11T14:36:50;99323.19;;;-1.49;86.02
28008;BME280;15333;50.010;20.020;2024-01-11T14:39:51;99335.63;;;-1.57;86.84
28008;BME280;15333;50.010;20.020;2024-01-11T14:42:52;99340.00;;;-1.58;85.84
28008;BME280;15333;50.010;20.020;2024-01-11T14:45:53;99347.81;;;-1.56;88.34
28008;BME280;15333;50.010;20.020;2024-01-11T14:48:54;99358.44;;;-1.62;89.31
28008;BME280;15333;50.010;20.020;2024-01-11T14:51:55;99371.66;;;-1.68;90.08
28008;BME280;15333;50.010;20.020;2024-01-11T14:54:56;99393.63;;;-1.72;91.44
28008;BME280;15333;50.010;20.020;2024-01-11T14:57:57;99409.47;;;-1.78;93.07
28008;BME280;15333;50.010;20.020;2024-01-11T15:00:58;99406.09;;;-1.86;95.60
28008;BME280;15333;50.010;20.020;2024-01-11T15:03:59;99421.94;;;-1.92;99.60
28008;BME280;15333;50.010;20.020;2024-01-11T15:07:00;99416.09;;;-2.13;100.00
28008;BME280;15333;50.010;20.020;2024-01-11T15:10:01;99425.00;;;-2.24;100.00
28008;BME280;15333;50.010;20.020;2024-01-11T20:12:46;99416.84;;;-3.42;75.87
28008;BME280;15333;50.010;20.020;2024-01-11T20:15:47;99412.47;;;-3.42;75.66
28008;BME280;15333;50.010;20.020;2024-01-11T20:18:48;99408.09;;;-3.41;76.26
28008;BME280;15333;50.010;20.020;2024-01-11T20:21:49;99418.53;;;-3.38;75.95
28008;BME280;15333;50.010;20.020;2024-01-11T20:24:50;99411.53;;;-3.39;76.40
28008;BME280;15333;50.010;20.020;2024-01-11T20:27:51;99416.84;;;-3.42;75.95
28008;BME280;15333;50.010;20.020;2024-01-11T20:30:52;99427.25;;;-3.41;76.26
28008;BME280;15333;50.010;20.020;2024-01-11T20:33:53;99432.47;;;-3.35;75.88
28008;BME280;15333;50.010;20.020;2024-01-11T20:36:56;99427.22;;;-3.36;75.66
28008;BME280;15333;50.010;20.020;2024-01-11T20:39:57;99432.47;;;-3.38;75.65
28008;BME280;15333;50.010;20.020;2024-01-11T20:42:59;99433.31;;;-3.34;76.26